sensor_id;sensor_type;location;lat;lon;timestamp;P1;durP1;ratioP1;P2;durP2;ratioP2
4011;SDS011;2020;48.682;9.024;2023-02-01T00:02:02;3.83;;;3.50;;
4011;SDS011;2020;48.682;9.024;2023-02-01T00:04:28;3.10;;;2.97;;
4011;SDS011;2020;48.682;9.024;2023-02-01T00:06:53;3.80;;;3.53;;
4011;SDS011;2020;48.682;9.024;2023-02-01T00:09:18;3.13;;;3.03;;
4011;SDS011;2020;48.682;9.024;2023-02-01T00:11:44;3.67;;;3.47;;
4011;SDS011;2020;48.682;9.024;2023-02-01T00:14:09;3.50;;;3.40;;
4011;SDS011;2020;48.682;9.024;2023-02-01T00:16:35;3.97;;;3.73;;
4011;SDS011;2020;48.682;9.024;2023-02-01T00:19:10;4.00;;;3.60;;
4011;SDS011;2020;48.682;9.024;2023-02-01T00:21:38;4.00;;;3.80;;
4011;SDS011;2020;48.682;9.024;2023-02-01T00:24:03;3.30;;;3.07;;
4011;SDS011;2020;48.682;9.024;2023-02-01T00:26:37;3.87;;;3.60;;
4011;SDS011;2020;48.682;9.024;2023-02-01T00:29:05;4.70;;;4.30;;
4011;SDS011;2020;48.682;9.024;2023-02-01T00:31:31;4.73;;;4.43;;
4011;SDS011;2020;48.682;9.024;2023-02-01T00:33:57;5.03;;;4.73;;
4011;SDS011;2020;48.682;9.024;2023-02-01T00:36:22;5.90;;;5.00;;
4011;SDS011;2020;48.682;9.024;2023-02-01T00:38:47;4.07;;;3.70;;
4011;SDS011;2020;48.682;9.024;2023-02-01T00:41:17;4.27;;;3.97;;
4011;SDS011;2020;48.682;9.024;2023-02-01T00:43:44;3.90;;;3.70;;
4011;SDS011;2020;48.682;9.024;2023-02-01T00:46:10;4.50;;;3.87;;
4011;SDS011;2020;48.682;9.024;2023-02-01T00:48:36;3.50;;;3.30;;
4011;SDS011;2020;48.682;9.024;2023-02-01T00:51:03;3.37;;;3.17;;
4011;SDS011;2020;48.682;9.024;2023-02-01T00:53:34;4.47;;;3.10;;
4011;SDS011;2020;48.682;9.024;2023-02-01T00:56:00;2.77;;;2.43;;
4011;SDS011;2020;48.682;9.024;2023-02-01T00:58:25;3.30;;;3.00;;
4011;SDS011;2020;48.682;9.024;2023-02-01T01:03:46;4.07;;;3.60;;
4011;SDS011;2020;48.682;9.024;2023-02-01T01:06:17;3.07;;;2.87;;
4011;SDS011;2020;48.682;9.024;2023-02-01T01:08:45;3.13;;;3.03;;
4011;SDS011;2020;48.682;9.024;2023-02-01T01:11:12;3.53;;;3.17;;
4011;SDS011;2020;48.682;9.024;2023-02-01T01:13:40;3.37;;;3.20;;
4011;SDS011;2020;48.682;9.024;2023-02-01T01:16:07;2.37;;;2.27;;
4011;SDS011;2020;48.682;9.024;2023-02-01T01:18:34;6.27;;;2.43;;
4011;SDS011;2020;48.682;9.024;2023-02-01T01:20:59;4.00;;;3.80;;
4011;SDS011;2020;48.682;9.024;2023-02-01T01:23:26;3.47;;;3.30;;
4011;SDS011;2020;48.682;9.024;2023-02-01T01:25:51;3.90;;;3.60;;
4011;SDS011;2020;48.682;9.024;2023-02-01T01:28:17;4.53;;;4.13;;
4011;SDS011;2020;48.682;9.024;2023-02-01T01:30:42;3.73;;;3.53;;
4011;SDS011;2020;48.682;9.024;2023-02-01T01:33:08;5.53;;;3.50;;
4011;SDS011;2020;48.682;9.024;2023-02-01T01:35:34;4.33;;;4.03;;
4011;SDS011;2020;48.682;9.024;2023-02-01T01:38:00;4.63;;;4.20;;
4011;SDS011;2020;48.682;9.024;2023-02-01T01:42:53;3.60;;;3.30;;
4011;SDS011;2020;48.682;9.024;2023-02-01T01:45:32;4.70;;;4.20;;
4011;SDS011;2020;48.682;9.024;2023-02-01T01:48:04;4.80;;;4.40;;
4011;SDS011;2020;48.682;9.024;2023-02-01T01:50:35;4.87;;;4.57;;
4011;SDS011;2020;48.682;9.024;2023-02-01T01:53:06;4.53;;;4.33;;
4011;SDS011;2020;48.682;9.024;2023-02-01T01:55:35;6.23;;;5.63;;
4011;SDS011;2020;48.682;9.024;2023-02-01T01:58:11;4.47;;;4.23;;
4011;SDS011;2020;48.682;9.024;2023-02-01T02:00:40;4.30;;;4.00;;
4011;SDS011;2020;48.682;9.024;2023-02-01T02:03:11;3.90;;;3.67;;
4011;SDS011;2020;48.682;9.024;2023-02-01T02:05:47;4.77;;;4.40;;
4011;SDS011;2020;48.682;9.024;2023-02-01T02:08:14;5.17;;;4.77;;
4011;SDS011;2020;48.682;9.024;2023-02-01T02:10:40;4.57;;;4.27;;
4011;SDS011;2020;48.682;9.024;2023-02-01T02:13:24;4.37;;;4.13;;
4011;SDS011;2020;48.682;9.024;2023-02-01T02:15:56;3.83;;;3.63;;
4011;SDS011;2020;48.682;9.024;2023-02-01T02:18:27;4.73;;;4.33;;
4011;SDS011;2020;48.682;9.024;2023-02-01T02:21:23;3.57;;;3.37;;
4011;SDS011;2020;48.682;9.024;2023-02-01T02:35:54;3.10;;;2.90;;
4011;SDS011;2020;48.682;9.024;2023-02-01T02:41:19;3.90;;;3.60;;
4011;SDS011;2020;48.682;9.024;2023-02-01T02:44:09;3.33;;;3.20;;
4011;SDS011;2020;48.682;9.024;2023-02-01T02:47:05;4.07;;;3.73;;
4011;SDS011;2020;48.682;9.024;2023-02-01T02:49:52;4.00;;;3.57;;
4011;SDS011;2020;48.682;9.024;2023-02-01T02:52:42;3.37;;;3.27;;
4011;SDS011;2020;48.682;9.024;2023-02-01T02:55:33;3.20;;;3.10;;
4011;SDS011;2020;48.682;9.024;2023-02-01T02:58:01;3.80;;;3.50;;
4011;SDS011;2020;48.682;9.024;2023-02-01T03:00:48;8.57;;;4.00;;
4011;SDS011;2020;48.682;9.024;2023-02-01T03:03:36;3.70;;;3.50;;
4011;SDS011;2020;48.682;9.024;2023-02-01T03:06:22;4.17;;;3.87;;
4011;SDS011;2020;48.682;9.024;2023-02-01T03:08:48;3.00;;;2.80;;
4011;SDS011;2020;48.682;9.024;2023-02-01T03:11:18;3.50;;;3.40;;
4011;SDS011;2020;48.682;9.024;2023-02-01T03:13:45;3.50;;;3.30;;
4011;SDS011;2020;48.682;9.024;2023-02-01T03:16:34;3.37;;;3.17;;
4011;SDS011;2020;48.682;9.024;2023-02-01T03:19:06;4.10;;;3.80;;
4011;SDS011;2020;48.682;9.024;2023-02-01T03:21:47;3.80;;;3.60;;
4011;SDS011;2020;48.682;9.024;2023-02-01T03:24:16;4.87;;;4.57;;
4011;SDS011;2020;48.682;9.024;2023-02-01T03:26:58;3.50;;;3.40;;
4011;SDS011;2020;48.682;9.024;2023-02-01T03:29:32;4.10;;;3.80;;
4011;SDS011;2020;48.682;9.024;2023-02-01T03:32:03;3.60;;;3.30;;
4011;SDS011;2020;48.682;9.024;2023-02-01T03:34:28;4.67;;;4.27;;
4011;SDS011;2020;48.682;9.024;2023-02-01T03:36:58;3.73;;;3.40;;
4011;SDS011;2020;48.682;9.024;2023-02-01T03:39:39;4.40;;;4.20;;
4011;SDS011;2020;48.682;9.024;2023-02-01T03:42:16;3.70;;;3.57;;
4011;SDS011;2020;48.682;9.024;2023-02-01T03:44:54;3.67;;;3.47;;
4011;SDS011;2020;48.682;9.024;2023-02-01T03:47:43;4.17;;;3.73;;
4011;SDS011;2020;48.682;9.024;2023-02-01T03:52:47;3.23;;;3.07;;
4011;SDS011;2020;48.682;9.024;2023-02-01T03:55:16;4.23;;;4.03;;
4011;SDS011;2020;48.682;9.024;2023-02-01T03:57:46;4.30;;;3.90;;
4011;SDS011;2020;48.682;9.024;2023-02-01T04:02:44;4.03;;;3.70;;
4011;SDS011;2020;48.682;9.024;2023-02-01T04:05:10;3.60;;;3.40;;
4011;SDS011;2020;48.682;9.024;2023-02-01T04:07:35;4.90;;;4.70;;
4011;SDS011;2020;48.682;9.024;2023-02-01T04:10:00;4.57;;;4.27;;
4011;SDS011;2020;48.682;9.024;2023-02-01T04:12:25;5.07;;;4.77;;
4011;SDS011;2020;48.682;9.024;2023-02-01T04:14:52;3.90;;;3.70;;
4011;SDS011;2020;48.682;9.024;2023-02-01T04:17:17;4.10;;;3.90;;
4011;SDS011;2020;48.682;9.024;2023-02-01T04:19:43;3.40;;;3.20;;
4011;SDS011;2020;48.682;9.024;2023-02-01T04:22:08;4.13;;;3.90;;
4011;SDS011;2020;48.682;9.024;2023-02-01T04:24:33;3.70;;;3.50;;
4011;SDS011;2020;48.682;9.024;2023-02-01T04:26:59;3.50;;;3.40;;
4011;SDS011;2020;48.682;9.024;2023-02-01T04:29:24;4.57;;;4.00;;
4011;SDS011;2020;48.682;9.024;2023-02-01T04:31:49;3.63;;;3.33;;
4011;SDS011;2020;48.682;9.024;2023-02-01T04:34:14;3.20;;;3.10;;
4011;SDS011;2020;48.682;9.024;2023-02-01T04:36:40;3.40;;;3.20;;
4011;SDS011;2020;48.682;9.024;2023-02-01T04:39:05;4.30;;;3.97;;
4011;SDS011;2020;48.682;9.024;2023-02-01T04:41:30;4.83;;;4.53;;
4011;SDS011;2020;48.682;9.024;2023-02-01T04:43:55;3.87;;;3.60;;
4011;SDS011;2020;48.682;9.024;2023-02-01T04:46:21;3.87;;;3.57;;
4011;SDS011;2020;48.682;9.024;2023-02-01T04:48:46;3.33;;;3.13;;
4011;SDS011;2020;48.682;9.024;2023-02-01T04:51:12;3.00;;;2.90;;
4011;SDS011;2020;48.682;9.024;2023-02-01T04:53:37;3.60;;;3.50;;
4011;SDS011;2020;48.682;9.024;2023-02-01T04:56:03;5.13;;;3.80;;
4011;SDS011;2020;48.682;9.024;2023-02-01T04:58:29;3.10;;;2.80;;
4011;SDS011;2020;48.682;9.024;2023-02-01T05:00:54;3.57;;;3.27;;
4011;SDS011;2020;48.682;9.024;2023-02-01T05:03:19;2.90;;;2.67;;
4011;SDS011;2020;48.682;9.024;2023-02-01T05:05:46;2.73;;;2.63;;
4011;SDS011;2020;48.682;9.024;2023-02-01T05:08:12;4.20;;;3.50;;
4011;SDS011;2020;48.682;9.024;2023-02-01T05:10:38;3.00;;;2.80;;
4011;SDS011;2020;48.682;9.024;2023-02-01T05:13:03;3.50;;;3.30;;
4011;SDS011;2020;48.682;9.024;2023-02-01T05:15:46;2.50;;;2.37;;
4011;SDS011;2020;48.682;9.024;2023-02-01T05:18:12;2.97;;;2.77;;
4011;SDS011;2020;48.682;9.024;2023-02-01T05:20:37;3.67;;;2.40;;
4011;SDS011;2020;48.682;9.024;2023-02-01T05:23:03;2.57;;;2.47;;
4011;SDS011;2020;48.682;9.024;2023-02-01T05:25:28;2.23;;;2.13;;
4011;SDS011;2020;48.682;9.024;2023-02-01T05:27:53;2.40;;;2.07;;
4011;SDS011;2020;48.682;9.024;2023-02-01T05:30:19;2.27;;;2.17;;
4011;SDS011;2020;48.682;9.024;2023-02-01T05:32:44;2.70;;;2.60;;
4011;SDS011;2020;48.682;9.024;2023-02-01T05:35:09;1.80;;;1.80;;
4011;SDS011;2020;48.682;9.024;2023-02-01T05:37:35;2.83;;;2.63;;
4011;SDS011;2020;48.682;9.024;2023-02-01T05:40:00;2.53;;;2.43;;
4011;SDS011;2020;48.682;9.024;2023-02-01T05:42:25;2.43;;;2.23;;
4011;SDS011;2020;48.682;9.024;2023-02-01T05:44:51;2.60;;;2.50;;
4011;SDS011;2020;48.682;9.024;2023-02-01T05:47:16;2.30;;;2.20;;
4011;SDS011;2020;48.682;9.024;2023-02-01T05:49:41;2.07;;;1.97;;
4011;SDS011;2020;48.682;9.024;2023-02-01T05:52:06;2.40;;;2.40;;
4011;SDS011;2020;48.682;9.024;2023-02-01T05:54:32;2.50;;;2.40;;
4011;SDS011;2020;48.682;9.024;2023-02-01T05:56:57;2.20;;;2.10;;
4011;SDS011;2020;48.682;9.024;2023-02-01T05:59:23;2.33;;;2.23;;
4011;SDS011;2020;48.682;9.024;2023-02-01T06:01:48;2.23;;;2.10;;
4011;SDS011;2020;48.682;9.024;2023-02-01T06:04:13;2.40;;;2.30;;
4011;SDS011;2020;48.682;9.024;2023-02-01T06:06:39;1.97;;;1.87;;
4011;SDS011;2020;48.682;9.024;2023-02-01T06:09:05;2.67;;;2.27;;
4011;SDS011;2020;48.682;9.024;2023-02-01T06:11:30;2.23;;;2.13;;
4011;SDS011;2020;48.682;9.024;2023-02-01T06:13:56;2.70;;;2.00;;
4011;SDS011;2020;48.682;9.024;2023-02-01T06:16:21;2.70;;;2.50;;
4011;SDS011;2020;48.682;9.024;2023-02-01T06:18:47;4.50;;;2.30;;
4011;SDS011;2020;48.682;9.024;2023-02-01T06:21:13;5.67;;;3.67;;
4011;SDS011;2020;48.682;9.024;2023-02-01T06:23:40;2.23;;;2.03;;
4011;SDS011;2020;48.682;9.024;2023-02-01T06:26:06;1.73;;;1.73;;
4011;SDS011;2020;48.682;9.024;2023-02-01T06:28:35;4.00;;;2.13;;
4011;SDS011;2020;48.682;9.024;2023-02-01T06:31:04;2.50;;;2.40;;
4011;SDS011;2020;48.682;9.024;2023-02-01T06:33:31;2.23;;;2.13;;
4011;SDS011;2020;48.682;9.024;2023-02-01T06:36:01;2.40;;;2.30;;
4011;SDS011;2020;48.682;9.024;2023-02-01T06:38:28;2.57;;;2.47;;
4011;SDS011;2020;48.682;9.024;2023-02-01T06:40:55;2.63;;;2.53;;
4011;SDS011;2020;48.682;9.024;2023-02-01T06:43:22;2.43;;;2.33;;
4011;SDS011;2020;48.682;9.024;2023-02-01T06:45:48;2.23;;;2.13;;
4011;SDS011;2020;48.682;9.024;2023-02-01T06:48:13;2.20;;;2.07;;
4011;SDS011;2020;48.682;9.024;2023-02-01T06:50:38;2.23;;;2.13;;
4011;SDS011;2020;48.682;9.024;2023-02-01T06:53:04;2.10;;;2.10;;
4011;SDS011;2020;48.682;9.024;2023-02-01T06:55:29;2.10;;;2.00;;
4011;SDS011;2020;48.682;9.024;2023-02-01T06:57:54;2.60;;;2.50;;
4011;SDS011;2020;48.682;9.024;2023-02-01T07:00:21;2.13;;;2.03;;
4011;SDS011;2020;48.682;9.024;2023-02-01T07:02:47;5.47;;;2.50;;
4011;SDS011;2020;48.682;9.024;2023-02-01T07:05:12;2.50;;;2.30;;
4011;SDS011;2020;48.682;9.024;2023-02-01T07:07:37;2.20;;;2.10;;
4011;SDS011;2020;48.682;9.024;2023-02-01T07:10:03;2.80;;;2.70;;
4011;SDS011;2020;48.682;9.024;2023-02-01T07:12:28;1.70;;;1.60;;
4011;SDS011;2020;48.682;9.024;2023-02-01T07:14:53;2.43;;;2.30;;
4011;SDS011;2020;48.682;9.024;2023-02-01T07:17:19;2.60;;;2.47;;
4011;SDS011;2020;48.682;9.024;2023-02-01T07:19:44;1.93;;;1.93;;
4011;SDS011;2020;48.682;9.024;2023-02-01T07:22:09;2.60;;;2.50;;
4011;SDS011;2020;48.682;9.024;2023-02-01T07:24:34;2.40;;;2.30;;
4011;SDS011;2020;48.682;9.024;2023-02-01T07:27:00;2.00;;;1.90;;
4011;SDS011;2020;48.682;9.024;2023-02-01T07:29:25;4.13;;;2.27;;
4011;SDS011;2020;48.682;9.024;2023-02-01T07:31:50;1.90;;;1.87;;
4011;SDS011;2020;48.682;9.024;2023-02-01T07:34:15;3.20;;;2.90;;
4011;SDS011;2020;48.682;9.024;2023-02-01T07:36:41;2.17;;;2.07;;
4011;SDS011;2020;48.682;9.024;2023-02-01T07:39:06;2.40;;;2.30;;
4011;SDS011;2020;48.682;9.024;2023-02-01T07:41:32;2.10;;;2.00;;
4011;SDS011;2020;48.682;9.024;2023-02-01T07:43:57;2.13;;;2.03;;
4011;SDS011;2020;48.682;9.024;2023-02-01T07:46:22;2.50;;;2.40;;
4011;SDS011;2020;48.682;9.024;2023-02-01T07:48:48;2.50;;;2.30;;
4011;SDS011;2020;48.682;9.024;2023-02-01T07:51:14;2.93;;;2.73;;
4011;SDS011;2020;48.682;9.024;2023-02-01T07:53:41;3.87;;;2.93;;
4011;SDS011;2020;48.682;9.024;2023-02-01T07:56:17;2.47;;;2.27;;
4011;SDS011;2020;48.682;9.024;2023-02-01T07:58:47;2.30;;;2.30;;
4011;SDS011;2020;48.682;9.024;2023-02-01T08:01:19;5.20;;;2.37;;
4011;SDS011;2020;48.682;9.024;2023-02-01T08:03:54;5.40;;;2.20;;
4011;SDS011;2020;48.682;9.024;2023-02-01T08:06:22;1.77;;;1.67;;
4011;SDS011;2020;48.682;9.024;2023-02-01T08:08:49;2.40;;;2.30;;
4011;SDS011;2020;48.682;9.024;2023-02-01T08:11:15;2.40;;;2.20;;
4011;SDS011;2020;48.682;9.024;2023-02-01T08:13:42;3.33;;;2.37;;
4011;SDS011;2020;48.682;9.024;2023-02-01T08:16:08;2.20;;;2.10;;
4011;SDS011;2020;48.682;9.024;2023-02-01T08:18:35;2.30;;;2.10;;
4011;SDS011;2020;48.682;9.024;2023-02-01T08:21:03;2.93;;;2.73;;
4011;SDS011;2020;48.682;9.024;2023-02-01T08:23:30;4.00;;;2.97;;
4011;SDS011;2020;48.682;9.024;2023-02-01T08:26:04;2.73;;;2.13;;
4011;SDS011;2020;48.682;9.024;2023-02-01T08:28:53;6.20;;;2.03;;
4011;SDS011;2020;48.682;9.024;2023-02-01T08:31:21;2.47;;;2.27;;
4011;SDS011;2020;48.682;9.024;2023-02-01T08:33:49;4.93;;;2.43;;
4011;SDS011;2020;48.682;9.024;2023-02-01T08:36:16;2.47;;;2.37;;
4011;SDS011;2020;48.682;9.024;2023-02-01T08:38:41;6.00;;;2.13;;
4011;SDS011;2020;48.682;9.024;2023-02-01T08:41:07;3.57;;;2.60;;
4011;SDS011;2020;48.682;9.024;2023-02-01T08:43:35;3.83;;;3.10;;
4011;SDS011;2020;48.682;9.024;2023-02-01T08:46:00;1.73;;;1.73;;
4011;SDS011;2020;48.682;9.024;2023-02-01T08:48:26;4.80;;;2.23;;
4011;SDS011;2020;48.682;9.024;2023-02-01T08:50:51;3.90;;;2.23;;
4011;SDS011;2020;48.682;9.024;2023-02-01T08:53:16;3.00;;;2.77;;
4011;SDS011;2020;48.682;9.024;2023-02-01T08:55:42;2.77;;;2.60;;
4011;SDS011;2020;48.682;9.024;2023-02-01T08:58:07;3.53;;;2.60;;
4011;SDS011;2020;48.682;9.024;2023-02-01T09:00:32;3.27;;;2.50;;
4011;SDS011;2020;48.682;9.024;2023-02-01T09:02:58;3.70;;;2.60;;
4011;SDS011;2020;48.682;9.024;2023-02-01T09:05:23;3.67;;;2.47;;
4011;SDS011;2020;48.682;9.024;2023-02-01T09:07:51;2.60;;;2.40;;
4011;SDS011;2020;48.682;9.024;2023-02-01T09:10:17;2.47;;;2.30;;
4011;SDS011;2020;48.682;9.024;2023-02-01T09:12:42;3.37;;;3.07;;
4011;SDS011;2020;48.682;9.024;2023-02-01T09:15:08;2.97;;;2.70;;
4011;SDS011;2020;48.682;9.024;2023-02-01T09:17:33;2.93;;;2.83;;
4011;SDS011;2020;48.682;9.024;2023-02-01T09:19:59;2.83;;;2.63;;
4011;SDS011;2020;48.682;9.024;2023-02-01T09:22:24;3.73;;;2.60;;
4011;SDS011;2020;48.682;9.024;2023-02-01T09:24:49;8.97;;;3.13;;
4011;SDS011;2020;48.682;9.024;2023-02-01T09:27:15;2.37;;;2.23;;
4011;SDS011;2020;48.682;9.024;2023-02-01T09:29:40;2.47;;;2.27;;
4011;SDS011;2020;48.682;9.024;2023-02-01T09:32:05;2.60;;;2.50;;
4011;SDS011;2020;48.682;9.024;2023-02-01T09:34:31;2.90;;;2.70;;
4011;SDS011;2020;48.682;9.024;2023-02-01T09:36:57;3.13;;;2.77;;
4011;SDS011;2020;48.682;9.024;2023-02-01T09:39:22;4.83;;;3.30;;
4011;SDS011;2020;48.682;9.024;2023-02-01T09:41:55;2.73;;;2.53;;
4011;SDS011;2020;48.682;9.024;2023-02-01T09:44:44;2.93;;;2.20;;
4011;SDS011;2020;48.682;9.024;2023-02-01T09:47:35;4.43;;;2.93;;
4011;SDS011;2020;48.682;9.024;2023-02-01T09:50:12;3.53;;;2.53;;
4011;SDS011;2020;48.682;9.024;2023-02-01T09:52:46;6.00;;;2.63;;
4011;SDS011;2020;48.682;9.024;2023-02-01T09:55:19;3.90;;;2.67;;
4011;SDS011;2020;48.682;9.024;2023-02-01T09:57:50;7.27;;;2.83;;
4011;SDS011;2020;48.682;9.024;2023-02-01T10:00:29;3.40;;;2.40;;
4011;SDS011;2020;48.682;9.024;2023-02-01T10:02:58;2.20;;;2.07;;
4011;SDS011;2020;48.682;9.024;2023-02-01T10:05:30;3.27;;;3.00;;
4011;SDS011;2020;48.682;9.024;2023-02-01T10:16:41;4.47;;;2.13;;
4011;SDS011;2020;48.682;9.024;2023-02-01T10:19:22;6.10;;;2.47;;
4011;SDS011;2020;48.682;9.024;2023-02-01T10:22:00;5.33;;;2.50;;
4011;SDS011;2020;48.682;9.024;2023-02-01T10:27:33;2.50;;;2.33;;
4011;SDS011;2020;48.682;9.024;2023-02-01T10:30:04;3.10;;;2.83;;
4011;SDS011;2020;48.682;9.024;2023-02-01T10:32:40;5.10;;;2.80;;
4011;SDS011;2020;48.682;9.024;2023-02-01T10:35:14;4.90;;;1.67;;
4011;SDS011;2020;48.682;9.024;2023-02-01T10:37:42;11.77;;;2.90;;
4011;SDS011;2020;48.682;9.024;2023-02-01T10:40:21;2.40;;;2.30;;
4011;SDS011;2020;48.682;9.024;2023-02-01T10:42:51;5.27;;;2.10;;
4011;SDS011;2020;48.682;9.024;2023-02-01T10:45:19;6.70;;;2.37;;
4011;SDS011;2020;48.682;9.024;2023-02-01T10:47:48;2.70;;;2.00;;
4011;SDS011;2020;48.682;9.024;2023-02-01T10:50:22;4.33;;;2.27;;
4011;SDS011;2020;48.682;9.024;2023-02-01T10:53:03;4.73;;;2.57;;
4011;SDS011;2020;48.682;9.024;2023-02-01T10:55:32;4.20;;;3.80;;
4011;SDS011;2020;48.682;9.024;2023-02-01T10:58:02;3.70;;;2.43;;
4011;SDS011;2020;48.682;9.024;2023-02-01T11:05:55;2.50;;;2.17;;
4011;SDS011;2020;48.682;9.024;2023-02-01T11:08:21;4.93;;;1.93;;
4011;SDS011;2020;48.682;9.024;2023-02-01T11:10:47;3.53;;;2.33;;
4011;SDS011;2020;48.682;9.024;2023-02-01T11:13:21;6.43;;;2.50;;
4011;SDS011;2020;48.682;9.024;2023-02-01T11:15:55;5.43;;;2.90;;
4011;SDS011;2020;48.682;9.024;2023-02-01T11:18:25;9.93;;;2.90;;
4011;SDS011;2020;48.682;9.024;2023-02-01T11:20:55;6.90;;;3.00;;
4011;SDS011;2020;48.682;9.024;2023-02-01T11:23:21;7.90;;;2.13;;
4011;SDS011;2020;48.682;9.024;2023-02-01T11:25:49;4.60;;;2.97;;
4011;SDS011;2020;48.682;9.024;2023-02-01T11:28:17;3.87;;;2.10;;
4011;SDS011;2020;48.682;9.024;2023-02-01T11:30:44;5.10;;;2.83;;
4011;SDS011;2020;48.682;9.024;2023-02-01T11:33:16;3.33;;;2.03;;
4011;SDS011;2020;48.682;9.024;2023-02-01T11:35:44;6.20;;;2.47;;
4011;SDS011;2020;48.682;9.024;2023-02-01T11:38:28;5.13;;;2.00;;
4011;SDS011;2020;48.682;9.024;2023-02-01T11:41:10;6.70;;;2.30;;
4011;SDS011;2020;48.682;9.024;2023-02-01T11:43:38;9.10;;;2.57;;
4011;SDS011;2020;48.682;9.024;2023-02-01T11:46:17;5.67;;;2.53;;
4011;SDS011;2020;48.682;9.024;2023-02-01T11:48:50;5.70;;;2.23;;
4011;SDS011;2020;48.682;9.024;2023-02-01T11:59:45;3.47;;;2.30;;
4011;SDS011;2020;48.682;9.024;2023-02-01T12:02:41;4.30;;;1.53;;
4011;SDS011;2020;48.682;9.024;2023-02-01T12:05:25;11.73;;;2.37;;
4011;SDS011;2020;48.682;9.024;2023-02-01T12:08:22;3.87;;;2.30;;
4011;SDS011;2020;48.682;9.024;2023-02-01T12:13:42;5.60;;;2.17;;
4011;SDS011;2020;48.682;9.024;2023-02-01T12:16:35;3.63;;;1.60;;
4011;SDS011;2020;48.682;9.024;2023-02-01T12:21:54;3.90;;;2.53;;
4011;SDS011;2020;48.682;9.024;2023-02-01T12:27:36;3.57;;;1.80;;
4011;SDS011;2020;48.682;9.024;2023-02-01T12:46:35;2.30;;;1.43;;
4011;SDS011;2020;48.682;9.024;2023-02-01T12:49:08;12.77;;;2.50;;
4011;SDS011;2020;48.682;9.024;2023-02-01T12:51:39;8.10;;;2.80;;
4011;SDS011;2020;48.682;9.024;2023-02-01T12:56:59;3.10;;;1.93;;
4011;SDS011;2020;48.682;9.024;2023-02-01T12:59:31;3.80;;;3.27;;
4011;SDS011;2020;48.682;9.024;2023-02-01T13:10:35;5.30;;;3.30;;
4011;SDS011;2020;48.682;9.024;2023-02-01T13:22:21;4.03;;;1.73;;
4011;SDS011;2020;48.682;9.024;2023-02-01T13:24:57;5.73;;;2.83;;
4011;SDS011;2020;48.682;9.024;2023-02-01T13:27:26;4.07;;;2.33;;
4011;SDS011;2020;48.682;9.024;2023-02-01T13:35:23;7.53;;;2.47;;
4011;SDS011;2020;48.682;9.024;2023-02-01T13:37:58;3.27;;;1.70;;
4011;SDS011;2020;48.682;9.024;2023-02-01T13:40:46;7.70;;;3.80;;
4011;SDS011;2020;48.682;9.024;2023-02-01T13:43:24;3.73;;;3.53;;
4011;SDS011;2020;48.682;9.024;2023-02-01T13:45:53;2.80;;;2.60;;
4011;SDS011;2020;48.682;9.024;2023-02-01T13:48:26;8.10;;;1.93;;
4011;SDS011;2020;48.682;9.024;2023-02-01T13:50:58;7.10;;;2.10;;
4011;SDS011;2020;48.682;9.024;2023-02-01T13:53:29;2.03;;;1.93;;
4011;SDS011;2020;48.682;9.024;2023-02-01T13:58:31;3.67;;;2.60;;
4011;SDS011;2020;48.682;9.024;2023-02-01T14:06:17;3.13;;;2.70;;
4011;SDS011;2020;48.682;9.024;2023-02-01T14:11:36;2.40;;;2.20;;
4011;SDS011;2020;48.682;9.024;2023-02-01T14:14:37;4.33;;;2.20;;
4011;SDS011;2020;48.682;9.024;2023-02-01T14:19:21;4.13;;;2.90;;
4011;SDS011;2020;48.682;9.024;2023-02-01T14:21:51;8.00;;;2.20;;
4011;SDS011;2020;48.682;9.024;2023-02-01T14:24:32;4.53;;;1.73;;
4011;SDS011;2020;48.682;9.024;2023-02-01T14:27:13;5.10;;;2.33;;
4011;SDS011;2020;48.682;9.024;2023-02-01T14:29:45;4.80;;;2.23;;
4011;SDS011;2020;48.682;9.024;2023-02-01T14:32:23;7.67;;;2.43;;
4011;SDS011;2020;48.682;9.024;2023-02-01T14:34:52;7.70;;;2.43;;
4011;SDS011;2020;48.682;9.024;2023-02-01T14:47:54;7.53;;;2.77;;
4011;SDS011;2020;48.682;9.024;2023-02-01T15:00:57;4.93;;;2.20;;
4011;SDS011;2020;48.682;9.024;2023-02-01T15:08:58;7.40;;;2.37;;
4011;SDS011;2020;48.682;9.024;2023-02-01T15:11:26;5.03;;;2.50;;
4011;SDS011;2020;48.682;9.024;2023-02-01T15:13:52;6.57;;;3.17;;
4011;SDS011;2020;48.682;9.024;2023-02-01T15:16:21;5.33;;;2.40;;
4011;SDS011;2020;48.682;9.024;2023-02-01T15:18:49;2.90;;;2.60;;
4011;SDS011;2020;48.682;9.024;2023-02-01T15:21:16;6.53;;;3.27;;
4011;SDS011;2020;48.682;9.024;2023-02-01T15:23:44;3.27;;;1.90;;
4011;SDS011;2020;48.682;9.024;2023-02-01T15:26:24;3.80;;;3.17;;
4011;SDS011;2020;48.682;9.024;2023-02-01T15:28:50;5.10;;;2.43;;
4011;SDS011;2020;48.682;9.024;2023-02-01T15:31:30;4.83;;;2.87;;
4011;SDS011;2020;48.682;9.024;2023-02-01T15:34:07;3.03;;;2.83;;
4011;SDS011;2020;48.682;9.024;2023-02-01T15:36:33;4.07;;;2.70;;
4011;SDS011;2020;48.682;9.024;2023-02-01T15:44:52;5.20;;;2.40;;
4011;SDS011;2020;48.682;9.024;2023-02-01T15:47:18;3.13;;;2.27;;
4011;SDS011;2020;48.682;9.024;2023-02-01T15:49:56;2.30;;;2.20;;
4011;SDS011;2020;48.682;9.024;2023-02-01T15:52:25;3.30;;;2.13;;
4011;SDS011;2020;48.682;9.024;2023-02-01T15:54:58;3.47;;;2.60;;
4011;SDS011;2020;48.682;9.024;2023-02-01T15:57:26;4.27;;;2.07;;
4011;SDS011;2020;48.682;9.024;2023-02-01T15:59:58;4.23;;;2.53;;
4011;SDS011;2020;48.682;9.024;2023-02-01T16:02:35;2.40;;;2.13;;
4011;SDS011;2020;48.682;9.024;2023-02-01T16:05:25;4.37;;;2.40;;
4011;SDS011;2020;48.682;9.024;2023-02-01T16:07:56;6.20;;;2.33;;
4011;SDS011;2020;48.682;9.024;2023-02-01T16:10:29;6.57;;;2.40;;
4011;SDS011;2020;48.682;9.024;2023-02-01T16:12:56;2.80;;;2.60;;
4011;SDS011;2020;48.682;9.024;2023-02-01T16:15:25;6.00;;;2.40;;
4011;SDS011;2020;48.682;9.024;2023-02-01T16:17:54;6.23;;;2.77;;
4011;SDS011;2020;48.682;9.024;2023-02-01T16:20:20;9.03;;;3.80;;
4011;SDS011;2020;48.682;9.024;2023-02-01T16:22:45;11.70;;;3.37;;
4011;SDS011;2020;48.682;9.024;2023-02-01T16:25:10;13.50;;;4.17;;
4011;SDS011;2020;48.682;9.024;2023-02-01T16:27:36;9.73;;;4.70;;
4011;SDS011;2020;48.682;9.024;2023-02-01T16:30:01;3.00;;;2.70;;
4011;SDS011;2020;48.682;9.024;2023-02-01T16:32:27;7.37;;;2.77;;
4011;SDS011;2020;48.682;9.024;2023-02-01T16:34:52;6.90;;;3.53;;
4011;SDS011;2020;48.682;9.024;2023-02-01T16:37:20;5.80;;;2.70;;
4011;SDS011;2020;48.682;9.024;2023-02-01T16:39:47;11.30;;;4.47;;
4011;SDS011;2020;48.682;9.024;2023-02-01T16:42:13;5.60;;;2.83;;
4011;SDS011;2020;48.682;9.024;2023-02-01T16:44:40;3.57;;;2.33;;
4011;SDS011;2020;48.682;9.024;2023-02-01T16:47:40;6.37;;;2.97;;
4011;SDS011;2020;48.682;9.024;2023-02-01T16:49:58;5.20;;;2.60;;
4011;SDS011;2020;48.682;9.024;2023-02-01T16:52:24;8.97;;;3.67;;
4011;SDS011;2020;48.682;9.024;2023-02-01T16:54:51;4.43;;;2.80;;
4011;SDS011;2020;48.682;9.024;2023-02-01T16:57:18;4.87;;;2.60;;
4011;SDS011;2020;48.682;9.024;2023-02-01T16:59:48;4.00;;;2.50;;
4011;SDS011;2020;48.682;9.024;2023-02-01T17:02:14;3.50;;;2.50;;
4011;SDS011;2020;48.682;9.024;2023-02-01T17:04:43;7.87;;;2.17;;
4011;SDS011;2020;48.682;9.024;2023-02-01T17:07:11;8.33;;;2.37;;
4011;SDS011;2020;48.682;9.024;2023-02-01T17:09:38;11.80;;;3.57;;
4011;SDS011;2020;48.682;9.024;2023-02-01T17:12:04;4.80;;;3.33;;
4011;SDS011;2020;48.682;9.024;2023-02-01T17:14:38;5.60;;;3.10;;
4011;SDS011;2020;48.682;9.024;2023-02-01T17:17:05;2.63;;;2.33;;
4011;SDS011;2020;48.682;9.024;2023-02-01T17:19:30;2.60;;;2.40;;
4011;SDS011;2020;48.682;9.024;2023-02-01T17:21:57;3.60;;;2.60;;
4011;SDS011;2020;48.682;9.024;2023-02-01T17:24:25;7.23;;;3.00;;
4011;SDS011;2020;48.682;9.024;2023-02-01T17:26:53;9.10;;;3.10;;
4011;SDS011;2020;48.682;9.024;2023-02-01T17:29:18;4.10;;;2.53;;
4011;SDS011;2020;48.682;9.024;2023-02-01T17:31:45;7.33;;;3.03;;
4011;SDS011;2020;48.682;9.024;2023-02-01T17:34:13;5.00;;;2.77;;
4011;SDS011;2020;48.682;9.024;2023-02-01T17:36:43;5.47;;;2.70;;
4011;SDS011;2020;48.682;9.024;2023-02-01T17:39:10;6.60;;;2.70;;
4011;SDS011;2020;48.682;9.024;2023-02-01T17:41:56;6.00;;;3.70;;
4011;SDS011;2020;48.682;9.024;2023-02-01T17:44:22;4.07;;;3.77;;
4011;SDS011;2020;48.682;9.024;2023-02-01T17:46:47;5.40;;;3.13;;
4011;SDS011;2020;48.682;9.024;2023-02-01T17:49:13;3.77;;;2.67;;
4011;SDS011;2020;48.682;9.024;2023-02-01T17:51:38;14.77;;;4.30;;
4011;SDS011;2020;48.682;9.024;2023-02-01T17:54:07;5.27;;;2.73;;
4011;SDS011;2020;48.682;9.024;2023-02-01T17:56:36;3.20;;;2.90;;
4011;SDS011;2020;48.682;9.024;2023-02-01T17:59:01;4.07;;;3.07;;